Flin Flon, Canada
Current Conditions -  °F | °C
As of 6:00 AM on Wednesday 28 Jan 2015 (Local Time) from CYFO Reporting Station
Broken Clouds Broken Clouds  
Wind Chill: -17°   Ceiling: 8000
Heat Index: -2°   Visibility: 15mi
Dew Point: -9°   Wind: 8mph
Humidity: 71%   Direction: 40°NE
Pressure: 30.14"   Gusts: NA
Location:  54.77°N, 101.88°W
Report Text: CYFO 281200Z 04007KT 360V060 15SM BKN080 M19/M23 A3014 RMK AC7 SNW COV/MUCH LOOSE SLP238
Loading
Personal Weather Stations






























Interactive Weather Map New forecast layout! Learn more

10-Day Weather Forecast

Advertisements
Track Severe Weather on mobile